This is the latest recevied weather packets stored in our database for station/object KC9GSD. If no packets are shown the sender has not sent any weather packets the latest 1 day(s).
| Time | Temp. | Humidity | Pressure | Rain* | Wind** | Luminosity | Snow |
|---|---|---|---|---|---|---|---|
| 1778023403 | 21.67° C | 59% | 1012.2 hPa | 0 mm | 0.89 m/s, 159° | 68 W/m² | - |
| 1778023100 | 21.11° C | 59% | 1012.4 hPa | 0 mm | 0 m/s | 64 W/m² | - |
| 1778022798 | 21.11° C | 58% | 1012.2 hPa | 0 mm | 0.89 m/s, 149° | 49 W/m² | - |
| 1778022496 | 21.11° C | 58% | 1012.4 hPa | 0 mm | 0.45 m/s, 176° | 41 W/m² | - |
| 1778022192 | 21.11° C | 60% | 1012.2 hPa | 0 mm | 1.34 m/s, 159° | 45 W/m² | - |
| 1778021889 | 21.67° C | 59% | 1012.5 hPa | 0 mm | 0.89 m/s, 181° | 39 W/m² | - |
| 1778021586 | 21.67° C | 58% | 1012.5 hPa | 0 mm | 0.89 m/s, 174° | 40 W/m² | - |
| 1778021281 | 21.67° C | 60% | 1012.5 hPa | 0 mm | 0.45 m/s, 138° | 52 W/m² | - |
| 1778020979 | 21.67° C | 57% | 1012.6 hPa | 0 mm | 0.89 m/s, 134° | 62 W/m² | - |
| 1778020676 | 21.67° C | 57% | 1012.3 hPa | 0 mm | 1.34 m/s, 215° | 70 W/m² | - |
| 1778020373 | 21.67° C | 56% | 1012.5 hPa | 0 mm | 0.89 m/s, 168° | 77 W/m² | - |
| 1778020068 | 21.67° C | 55% | 1012.3 hPa | 0 mm | 0.89 m/s, 150° | 87 W/m² | - |
| 1778019765 | 21.67° C | 56% | 1012.5 hPa | 0 mm | 0 m/s | 101 W/m² | - |
| 1778019462 | 21.67° C | 56% | 1012.6 hPa | 0 mm | 0.45 m/s, 156° | 123 W/m² | - |
| 1778019159 | 22.22° C | 55% | 1012.2 hPa | 0 mm | 1.79 m/s, 160° | 114 W/m² | - |
| 1778018855 | 22.22° C | 55% | 1012.4 hPa | 0 mm | 0 m/s | 115 W/m² | - |
| 1778018553 | 22.22° C | 54% | 1012.2 hPa | 0 mm | 0 m/s | 156 W/m² | - |
| 1778018251 | 22.22° C | 54% | 1012.5 hPa | 0 mm | 1.79 m/s, 132° | 178 W/m² | - |
| 1778017949 | 22.22° C | 56% | 1012.3 hPa | 0 mm | 0 m/s | 170 W/m² | - |
| 1778017647 | 22.22° C | 53% | 1012.3 hPa | 0 mm | 0.89 m/s, 171° | 167 W/m² | - |
| 1778017344 | 22.22° C | 55% | 1012.1 hPa | 0 mm | 0.89 m/s, 148° | 149 W/m² | - |
| 1778017041 | 23.33° C | 52% | 1012.1 hPa | 0 mm | 1.79 m/s, 110° | 230 W/m² | - |
| 1778016738 | 22.78° C | 54% | 1012.3 hPa | 0 mm | 0.45 m/s, 157° | 458 W/m² | - |
| 1778016434 | 22.22° C | 54% | 1012 hPa | 0 mm | 1.79 m/s, 176° | 271 W/m² | - |
| 1778016131 | 22.22° C | 54% | 1012.2 hPa | 0 mm | 1.34 m/s, 167° | 202 W/m² | - |
* Rain latest hour (hover to see other rain measurements)
** Current wind speed in m/s (hover to see current wind gust speed)